createdAt,value
2022-08-17T00:00:49.208Z,28.00
2022-08-17T00:01:52.261Z,29.20
2022-08-17T00:02:42.868Z,27.90
2022-08-17T00:03:40.400Z,31.00
2022-08-17T00:04:40.200Z,32.40
2022-08-17T00:05:40.136Z,28.70
2022-08-17T00:06:40.663Z,24.00
2022-08-17T00:07:40.201Z,23.40
2022-08-17T00:08:40.152Z,22.80
2022-08-17T00:09:40.027Z,22.40
2022-08-17T00:10:40.129Z,21.60
2022-08-17T00:11:40.124Z,21.70
2022-08-17T00:12:43.237Z,21.80
2022-08-17T00:13:40.312Z,37.90
2022-08-17T00:14:40.266Z,43.80
2022-08-17T00:15:40.035Z,43.90
2022-08-17T00:16:50.448Z,37.20
2022-08-17T00:17:40.067Z,30.00
2022-08-17T00:18:53.867Z,27.80
2022-08-17T00:19:40.127Z,23.50
2022-08-17T00:20:40.033Z,23.90
2022-08-17T00:22:10.643Z,24.10
2022-08-17T00:22:40.350Z,25.10
2022-08-17T00:23:44.416Z,24.10
2022-08-17T00:24:40.272Z,25.60
2022-08-17T00:25:39.946Z,23.90
2022-08-17T00:26:45.130Z,27.90
2022-08-17T00:27:39.998Z,26.00
2022-08-17T00:28:39.923Z,24.60
2022-08-17T00:29:40.047Z,26.70
2022-08-17T00:30:51.051Z,28.70
2022-08-17T00:31:40.020Z,27.10
2022-08-17T00:33:11.613Z,24.90
2022-08-17T00:33:39.650Z,24.30
2022-08-17T00:34:39.669Z,21.90
2022-08-17T00:35:39.878Z,21.90
2022-08-17T00:36:39.651Z,20.40
2022-08-17T00:37:39.605Z,20.90
2022-08-17T00:38:39.800Z,20.70
2022-08-17T00:39:39.656Z,20.20
2022-08-17T00:40:44.460Z,21.10
2022-08-17T00:41:42.198Z,23.60
2022-08-17T00:42:39.590Z,27.90
2022-08-17T00:43:39.569Z,36.20
2022-08-17T00:44:39.699Z,50.20
2022-08-17T00:45:39.516Z,67.20
2022-08-17T00:46:39.549Z,64.10
2022-08-17T00:47:39.588Z,50.00
2022-08-17T00:48:39.605Z,55.90
2022-08-17T00:49:39.507Z,57.20
2022-08-17T00:50:39.490Z,48.20
2022-08-17T00:51:39.526Z,48.60
2022-08-17T00:52:40.449Z,51.60
2022-08-17T00:53:39.510Z,64.10
2022-08-17T00:54:41.909Z,49.60
2022-08-17T00:55:39.498Z,32.20
2022-08-17T00:56:39.394Z,30.40
2022-08-17T00:57:39.389Z,31.30
2022-08-17T00:58:39.371Z,30.70
2022-08-17T00:59:39.347Z,31.30
2022-08-17T01:00:39.452Z,29.00
2022-08-17T01:01:39.384Z,28.50
2022-08-17T01:02:42.299Z,30.40
2022-08-17T01:03:39.327Z,32.30
2022-08-17T01:04:39.333Z,35.80
2022-08-17T01:05:42.339Z,32.80
2022-08-17T01:06:39.529Z,37.00
2022-08-17T01:07:39.298Z,43.40
2022-08-17T01:08:39.268Z,42.10
2022-08-17T01:09:39.233Z,48.40
2022-08-17T01:10:57.186Z,52.20
2022-08-17T01:11:39.270Z,48.50
2022-08-17T01:12:39.287Z,47.40
2022-08-17T01:13:41.179Z,73.80
2022-08-17T01:14:39.172Z,63.90
2022-08-17T01:15:39.244Z,55.40
2022-08-17T01:16:39.154Z,49.50
2022-08-17T01:17:39.147Z,47.00
2022-08-17T01:18:39.169Z,42.00
2022-08-17T01:19:39.154Z,41.50
2022-08-17T01:20:43.088Z,51.00
2022-08-17T01:21:39.105Z,42.80
2022-08-17T01:22:39.081Z,30.50
2022-08-17T01:23:39.104Z,28.40
2022-08-17T01:24:39.095Z,26.50
2022-08-17T01:25:39.056Z,27.10
2022-08-17T01:26:39.073Z,27.80
2022-08-17T01:27:39.045Z,30.20
2022-08-17T01:28:54.136Z,41.60
2022-08-17T01:29:39.019Z,51.30
2022-08-17T01:30:58.856Z,45.80
2022-08-17T01:31:39.535Z,32.60
2022-08-17T01:32:38.975Z,33.70
2022-08-17T01:33:38.969Z,39.60
2022-08-17T01:34:43.510Z,34.50
2022-08-17T01:35:38.949Z,28.70
2022-08-17T01:36:38.990Z,31.70
2022-08-17T01:37:38.941Z,37.30
2022-08-17T01:38:39.040Z,44.40
2022-08-17T01:39:39.956Z,45.10
2022-08-17T01:40:38.885Z,41.60
2022-08-17T01:41:38.874Z,39.20
2022-08-17T01:42:38.901Z,38.20
2022-08-17T01:43:38.890Z,35.70
2022-08-17T01:44:38.858Z,35.20
2022-08-17T01:45:38.830Z,34.60
2022-08-17T01:46:38.810Z,34.50
2022-08-17T01:47:38.810Z,34.40
2022-08-17T01:48:38.832Z,39.90
2022-08-17T01:49:39.496Z,44.20
2022-08-17T01:50:38.770Z,56.30
2022-08-17T01:51:39.016Z,54.10
2022-08-17T01:52:38.739Z,59.60
2022-08-17T01:53:38.760Z,66.40
2022-08-17T01:54:38.786Z,86.30
2022-08-17T01:55:38.705Z,74.00
2022-08-17T01:56:38.703Z,50.80
2022-08-17T01:57:38.688Z,49.00
2022-08-17T01:58:38.722Z,56.70
2022-08-17T01:59:38.674Z,49.20
2022-08-17T02:01:00.875Z,42.10
2022-08-17T02:01:38.827Z,44.60
2022-08-17T02:02:38.641Z,48.80
2022-08-17T02:03:38.622Z,42.60
2022-08-17T02:04:38.664Z,41.30
2022-08-17T02:05:38.625Z,52.60
2022-08-17T02:06:52.431Z,57.10
2022-08-17T02:07:59.720Z,60.50
2022-08-17T02:08:43.196Z,55.10
2022-08-17T02:09:39.496Z,50.70
2022-08-17T02:10:38.606Z,45.50
2022-08-17T02:11:38.536Z,42.60
2022-08-17T02:12:39.881Z,43.60
2022-08-17T02:13:39.367Z,46.30
2022-08-17T02:14:38.502Z,50.00
2022-08-17T02:15:38.547Z,50.80
2022-08-17T02:16:38.467Z,55.90
2022-08-17T02:17:38.503Z,62.60
2022-08-17T02:18:38.506Z,56.30
2022-08-17T02:19:39.012Z,51.60
2022-08-17T02:20:41.985Z,52.60
2022-08-17T02:21:38.428Z,53.00
2022-08-17T02:22:38.425Z,52.40
2022-08-17T02:23:38.422Z,53.40
2022-08-17T02:24:58.834Z,51.80
2022-08-17T02:25:38.395Z,49.50
2022-08-17T02:26:38.350Z,50.00
2022-08-17T02:27:38.377Z,49.50
2022-08-17T02:28:38.328Z,40.50
2022-08-17T02:29:38.326Z,37.40
2022-08-17T02:30:59.406Z,37.50
2022-08-17T02:31:38.307Z,39.40
2022-08-17T02:32:38.291Z,40.50
2022-08-17T02:33:42.911Z,38.10
2022-08-17T02:34:38.286Z,37.80
2022-08-17T02:35:38.327Z,36.90
2022-08-17T02:36:38.303Z,37.20
2022-08-17T02:37:38.228Z,37.60
2022-08-17T02:38:38.241Z,38.50
2022-08-17T02:39:38.327Z,38.60
2022-08-17T02:40:38.210Z,36.60
2022-08-17T02:41:38.188Z,36.10
2022-08-17T02:42:38.228Z,34.20
2022-08-17T02:43:38.210Z,35.00
2022-08-17T02:44:39.908Z,36.40
2022-08-17T02:45:38.161Z,41.20
2022-08-17T02:46:38.151Z,46.50
2022-08-17T02:47:38.131Z,48.70
2022-08-17T02:48:38.162Z,49.10
2022-08-17T02:49:38.106Z,57.90
2022-08-17T02:50:38.081Z,40.40
2022-08-17T02:51:38.075Z,37.80
2022-08-17T02:52:42.322Z,36.40
2022-08-17T02:53:38.065Z,37.60
2022-08-17T02:54:41.340Z,40.70
2022-08-17T02:55:38.047Z,40.10
2022-08-17T02:56:40.013Z,40.80
2022-08-17T02:57:38.019Z,40.60
2022-08-17T02:58:38.005Z,39.30
2022-08-17T02:59:37.992Z,35.10
2022-08-17T03:00:38.009Z,32.60
2022-08-17T03:01:38.054Z,31.00
2022-08-17T03:02:37.961Z,41.80
2022-08-17T03:03:37.995Z,34.90
2022-08-17T03:04:37.936Z,33.50
2022-08-17T03:05:37.917Z,40.80
2022-08-17T03:06:37.933Z,42.60
2022-08-17T03:07:38.529Z,38.80
2022-08-17T03:08:39.491Z,34.70
2022-08-17T03:09:37.868Z,46.30
2022-08-17T03:10:37.867Z,32.60
2022-08-17T03:11:37.847Z,32.30
2022-08-17T03:12:37.872Z,32.30
2022-08-17T03:13:37.855Z,39.10
2022-08-17T03:14:41.308Z,41.80
2022-08-17T03:15:37.815Z,32.60
2022-08-17T03:16:37.889Z,30.40
2022-08-17T03:17:37.828Z,31.70
2022-08-17T03:18:37.904Z,30.40
2022-08-17T03:19:39.640Z,32.60
2022-08-17T03:20:37.856Z,39.60
2022-08-17T03:21:38.063Z,38.70
2022-08-17T03:22:52.964Z,43.40
2022-08-17T03:23:37.750Z,42.10
2022-08-17T03:24:38.443Z,41.00
2022-08-17T03:25:37.777Z,43.20
2022-08-17T03:26:37.993Z,49.70
2022-08-17T03:27:37.814Z,45.80
2022-08-17T03:28:37.681Z,42.20
2022-08-17T03:29:38.385Z,37.90
2022-08-17T03:30:37.901Z,39.50
2022-08-17T03:31:38.709Z,39.40
2022-08-17T03:32:37.709Z,38.60
2022-08-17T03:33:37.625Z,38.50
2022-08-17T03:34:37.677Z,38.60
2022-08-17T03:35:37.661Z,42.80
2022-08-17T03:36:37.689Z,40.50
2022-08-17T03:37:37.561Z,37.30
2022-08-17T03:38:38.981Z,35.90
2022-08-17T03:39:37.596Z,37.90
2022-08-17T03:40:58.204Z,34.40
2022-08-17T03:41:37.529Z,31.30
2022-08-17T03:42:37.535Z,32.40
2022-08-17T03:43:38.536Z,30.20
2022-08-17T03:44:37.549Z,31.10
2022-08-17T03:45:37.458Z,30.80
2022-08-17T03:46:37.452Z,29.60
2022-08-17T03:47:37.440Z,28.70
2022-08-17T03:48:37.509Z,27.30
2022-08-17T03:49:37.451Z,28.40
2022-08-17T03:50:37.410Z,27.50
2022-08-17T03:51:37.404Z,30.10
2022-08-17T03:52:37.397Z,26.70
2022-08-17T03:53:37.376Z,31.20
2022-08-17T03:54:37.412Z,34.30
2022-08-17T03:55:37.355Z,47.20
2022-08-17T03:56:37.854Z,45.90
2022-08-17T03:57:37.325Z,48.80
2022-08-17T03:58:37.321Z,49.30
2022-08-17T03:59:37.315Z,58.20
2022-08-17T04:00:39.729Z,60.40
2022-08-17T04:01:37.308Z,67.00
2022-08-17T04:02:37.274Z,68.10
2022-08-17T04:03:38.031Z,71.60
2022-08-17T04:04:37.249Z,74.10
2022-08-17T04:05:37.288Z,50.30
2022-08-17T04:06:37.299Z,36.10
2022-08-17T04:07:37.221Z,38.80
2022-08-17T04:08:37.208Z,39.90
2022-08-17T04:09:37.192Z,42.90
2022-08-17T04:10:44.789Z,45.90
2022-08-17T04:11:37.184Z,42.50
2022-08-17T04:12:37.301Z,42.70
2022-08-17T04:13:37.144Z,39.90
2022-08-17T04:14:51.875Z,39.90
2022-08-17T04:15:37.127Z,37.10
2022-08-17T04:16:37.117Z,35.10
2022-08-17T04:17:37.112Z,36.10
2022-08-17T04:18:37.140Z,34.60
2022-08-17T04:19:37.103Z,38.50
2022-08-17T04:20:37.066Z,43.10
2022-08-17T04:21:37.063Z,48.90
2022-08-17T04:22:37.403Z,56.40
2022-08-17T04:23:37.277Z,75.30
2022-08-17T04:24:37.286Z,85.10
2022-08-17T04:25:37.224Z,96.10
2022-08-17T04:26:52.444Z,86.60
2022-08-17T04:27:37.406Z,84.20
2022-08-17T04:28:37.382Z,100.70
2022-08-17T04:29:54.217Z,115.50
2022-08-17T04:30:37.479Z,110.00
2022-08-17T04:31:37.320Z,128.20
2022-08-17T04:33:05.269Z,108.50
2022-08-17T04:33:37.268Z,127.90
2022-08-17T04:34:37.359Z,135.30
2022-08-17T04:35:37.106Z,146.50
2022-08-17T04:36:37.443Z,147.40
2022-08-17T04:37:37.213Z,146.40
2022-08-17T04:38:36.884Z,147.90
2022-08-17T04:39:36.909Z,151.50
2022-08-17T04:40:36.838Z,150.80
2022-08-17T04:41:36.825Z,148.10
2022-08-17T04:42:36.911Z,119.40
2022-08-17T04:43:36.839Z,130.60
2022-08-17T04:44:38.017Z,134.80
2022-08-17T04:45:36.786Z,125.30
2022-08-17T04:46:36.775Z,142.60
2022-08-17T04:47:36.829Z,135.00
2022-08-17T04:48:37.607Z,136.50
2022-08-17T04:49:36.742Z,128.50
2022-08-17T04:50:36.755Z,136.90
2022-08-17T04:51:36.709Z,145.50
2022-08-17T04:52:43.287Z,159.90
2022-08-17T04:53:36.981Z,148.70
2022-08-17T04:54:36.744Z,157.90
2022-08-17T04:55:36.674Z,149.00
2022-08-17T04:56:36.656Z,157.70
2022-08-17T04:57:38.462Z,165.70
2022-08-17T04:58:36.662Z,161.40
2022-08-17T04:59:36.651Z,166.20
2022-08-17T05:00:36.653Z,173.60
2022-08-17T05:01:36.636Z,173.20
2022-08-17T05:02:36.636Z,180.30
2022-08-17T05:03:36.576Z,170.70
2022-08-17T05:04:36.616Z,173.50
2022-08-17T05:05:36.587Z,158.80
2022-08-17T05:06:36.595Z,160.70
2022-08-17T05:07:36.538Z,167.60
2022-08-17T05:08:36.525Z,172.80
2022-08-17T05:09:36.509Z,164.90
2022-08-17T05:10:36.543Z,166.50
2022-08-17T05:11:36.492Z,167.40
2022-08-17T05:12:36.518Z,163.10
2022-08-17T05:13:36.465Z,165.90
2022-08-17T05:14:36.713Z,166.10
2022-08-17T05:15:36.445Z,166.90
2022-08-17T05:16:36.477Z,159.80
2022-08-17T05:17:37.137Z,158.70
2022-08-17T05:18:36.682Z,163.80
2022-08-17T05:19:36.413Z,157.90
2022-08-17T05:20:36.412Z,155.90
2022-08-17T05:21:36.426Z,159.30
2022-08-17T05:22:36.937Z,167.60
2022-08-17T05:23:43.049Z,164.60
2022-08-17T05:24:38.335Z,175.50
2022-08-17T05:25:36.324Z,173.30
2022-08-17T05:26:36.426Z,169.40
2022-08-17T05:27:36.355Z,171.70
2022-08-17T05:28:42.596Z,167.70
2022-08-17T05:29:42.865Z,168.80
2022-08-17T05:30:42.262Z,162.50
2022-08-17T05:31:36.321Z,161.70
2022-08-17T05:32:39.439Z,164.60
2022-08-17T05:33:36.240Z,161.10
2022-08-17T05:34:36.250Z,163.90
2022-08-17T05:35:36.289Z,166.30
2022-08-17T05:36:43.484Z,154.20
2022-08-17T05:37:37.037Z,156.40
2022-08-17T05:38:36.179Z,152.10
2022-08-17T05:39:36.196Z,146.80
2022-08-17T05:40:36.169Z,149.10
2022-08-17T05:41:36.241Z,145.80
2022-08-17T05:42:36.164Z,130.80
2022-08-17T05:43:36.172Z,136.10
2022-08-17T05:44:36.142Z,136.10
2022-08-17T05:45:55.353Z,138.20
2022-08-17T05:46:36.208Z,132.70
2022-08-17T05:47:36.297Z,127.20
2022-08-17T05:48:39.308Z,113.10
2022-08-17T05:49:36.069Z,111.90
2022-08-17T05:50:36.117Z,110.90
2022-08-17T05:51:36.050Z,114.50
2022-08-17T05:52:36.031Z,112.50
2022-08-17T05:53:36.086Z,114.70
2022-08-17T05:54:36.068Z,105.30
2022-08-17T05:55:36.056Z,106.50
2022-08-17T05:56:35.995Z,100.70
2022-08-17T05:57:35.964Z,102.30
2022-08-17T05:58:36.003Z,110.30
2022-08-17T05:59:36.031Z,105.80
2022-08-17T06:00:35.938Z,104.00
2022-08-17T06:01:35.979Z,100.70
2022-08-17T06:02:35.918Z,97.60
2022-08-17T06:03:35.903Z,97.80
2022-08-17T06:04:35.888Z,100.80
2022-08-17T06:05:35.935Z,96.40
2022-08-17T06:06:35.863Z,94.40
2022-08-17T06:07:35.881Z,94.10
2022-08-17T06:08:35.848Z,92.30
2022-08-17T06:09:35.830Z,90.70
2022-08-17T06:10:35.831Z,94.50
2022-08-17T06:11:35.925Z,88.40
2022-08-17T06:12:35.795Z,88.40
2022-08-17T06:13:35.780Z,87.90
2022-08-17T06:14:35.775Z,84.70
2022-08-17T06:15:35.768Z,82.60
2022-08-17T06:16:35.759Z,86.30
2022-08-17T06:17:36.598Z,87.10
2022-08-17T06:18:35.734Z,86.60
2022-08-17T06:19:35.731Z,86.00
2022-08-17T06:20:35.706Z,79.50
2022-08-17T06:21:35.699Z,81.70
2022-08-17T06:22:35.713Z,81.40
2022-08-17T06:23:35.898Z,85.20
2022-08-17T06:24:36.037Z,87.70
2022-08-17T06:25:35.696Z,91.80
2022-08-17T06:26:39.647Z,86.30
2022-08-17T06:27:35.772Z,82.00
2022-08-17T06:28:35.730Z,75.80
2022-08-17T06:29:35.688Z,75.10
2022-08-17T06:30:58.302Z,73.70
2022-08-17T06:31:35.588Z,73.90
2022-08-17T06:32:36.843Z,68.40
2022-08-17T06:33:35.763Z,71.20
2022-08-17T06:34:35.716Z,64.10
2022-08-17T06:35:35.918Z,61.80
2022-08-17T06:36:35.760Z,60.80
2022-08-17T06:37:36.074Z,59.00
2022-08-17T06:38:37.423Z,61.80
2022-08-17T06:39:35.554Z,66.30
2022-08-17T06:40:35.528Z,67.80
2022-08-17T06:41:37.883Z,62.00
2022-08-17T06:42:54.619Z,62.30
2022-08-17T06:43:35.823Z,60.90
2022-08-17T06:44:50.093Z,64.30
2022-08-17T06:45:35.511Z,60.80
2022-08-17T06:46:35.479Z,54.70
2022-08-17T06:47:35.460Z,54.10
2022-08-17T06:48:35.553Z,46.80
2022-08-17T06:49:35.609Z,46.00
2022-08-17T06:50:35.694Z,47.90
2022-08-17T06:51:35.675Z,49.90
2022-08-17T06:52:46.310Z,46.90
2022-08-17T06:53:35.438Z,46.50
2022-08-17T06:54:35.595Z,45.10
2022-08-17T06:55:38.119Z,43.20
2022-08-17T06:56:53.884Z,42.10
2022-08-17T06:57:35.951Z,41.00
2022-08-17T06:58:35.391Z,42.10
2022-08-17T06:59:54.359Z,41.10
2022-08-17T07:00:35.330Z,41.40
2022-08-17T07:01:35.324Z,42.80
2022-08-17T07:02:52.381Z,38.90
2022-08-17T07:03:35.271Z,38.70
2022-08-17T07:04:35.264Z,35.00
2022-08-17T07:05:35.259Z,37.70
2022-08-17T07:06:37.945Z,36.30
2022-08-17T07:07:35.461Z,34.90
2022-08-17T07:08:35.550Z,36.60
2022-08-17T07:09:35.166Z,33.90
2022-08-17T07:10:35.141Z,33.40
2022-08-17T07:11:35.190Z,34.20
2022-08-17T07:12:35.121Z,34.40
2022-08-17T07:13:35.134Z,33.80
2022-08-17T07:14:35.179Z,32.20
2022-08-17T07:15:35.082Z,30.50
2022-08-17T07:16:35.070Z,29.90
2022-08-17T07:17:46.780Z,30.10
2022-08-17T07:18:35.067Z,30.10
2022-08-17T07:19:35.085Z,30.90
2022-08-17T07:20:35.020Z,30.60
2022-08-17T07:21:35.015Z,28.30
2022-08-17T07:22:55.217Z,26.70
2022-08-17T07:23:35.032Z,26.70
2022-08-17T07:24:34.985Z,27.40
2022-08-17T07:25:35.023Z,26.70
2022-08-17T07:26:35.016Z,25.40
2022-08-17T07:27:34.953Z,25.60
2022-08-17T07:28:34.931Z,24.30
2022-08-17T07:29:34.971Z,24.10
2022-08-17T07:30:46.938Z,24.00
2022-08-17T07:31:34.922Z,23.90
2022-08-17T07:32:34.905Z,24.00
2022-08-17T07:33:34.927Z,21.70
2022-08-17T07:34:34.889Z,21.50
2022-08-17T07:35:40.895Z,22.00
2022-08-17T07:36:34.851Z,21.30
2022-08-17T07:37:34.838Z,20.90
2022-08-17T07:38:34.837Z,19.90
2022-08-17T07:39:34.911Z,20.40
2022-08-17T07:40:34.884Z,20.90
2022-08-17T07:41:53.272Z,19.70
2022-08-17T07:42:34.817Z,19.20
2022-08-17T07:43:34.774Z,18.70
2022-08-17T07:44:34.788Z,18.40
2022-08-17T07:45:34.796Z,17.00
2022-08-17T07:46:34.764Z,17.10
2022-08-17T07:47:34.818Z,16.70
2022-08-17T07:48:34.718Z,17.00
2022-08-17T07:49:34.705Z,16.90
2022-08-17T07:50:34.700Z,17.60
2022-08-17T07:51:34.760Z,17.70
2022-08-17T07:52:51.049Z,18.30
2022-08-17T07:53:34.831Z,18.60
2022-08-17T07:54:35.581Z,18.40
2022-08-17T07:55:34.650Z,18.20
2022-08-17T07:56:34.851Z,18.20
2022-08-17T07:57:34.614Z,18.10
2022-08-17T07:58:34.597Z,18.80
2022-08-17T07:59:34.663Z,19.60
2022-08-17T08:00:34.586Z,20.20
2022-08-17T08:01:39.570Z,19.80
2022-08-17T08:02:34.590Z,19.60
2022-08-17T08:03:34.648Z,18.90
2022-08-17T08:04:58.973Z,19.70
2022-08-17T08:05:50.073Z,21.10
2022-08-17T08:06:34.534Z,20.20
2022-08-17T08:07:34.564Z,20.70
2022-08-17T08:08:34.584Z,20.80
2022-08-17T08:09:34.493Z,20.20
2022-08-17T08:10:34.462Z,20.40
2022-08-17T08:11:34.513Z,20.50
2022-08-17T08:12:34.447Z,20.80
2022-08-17T08:13:34.436Z,20.90
2022-08-17T08:14:34.422Z,20.20
2022-08-17T08:15:34.436Z,19.10
2022-08-17T08:16:34.416Z,20.00
2022-08-17T08:17:34.660Z,20.60
2022-08-17T08:18:38.763Z,19.50
2022-08-17T08:19:34.375Z,18.00
2022-08-17T08:20:52.466Z,18.50
2022-08-17T08:21:34.357Z,19.30
2022-08-17T08:22:34.339Z,22.20
2022-08-17T08:23:34.392Z,20.70
2022-08-17T08:24:34.350Z,21.20
2022-08-17T08:25:34.335Z,20.70
2022-08-17T08:26:34.286Z,21.30
2022-08-17T08:27:34.272Z,19.70
2022-08-17T08:28:34.309Z,18.90
2022-08-17T08:29:34.328Z,18.30
2022-08-17T08:30:34.239Z,17.80
2022-08-17T08:31:36.710Z,17.50
2022-08-17T08:32:34.223Z,17.50
2022-08-17T08:33:34.226Z,17.90
2022-08-17T08:34:58.817Z,18.60
2022-08-17T08:35:34.253Z,18.80
2022-08-17T08:37:14.761Z,18.40
2022-08-17T08:37:39.100Z,16.70
2022-08-17T08:38:34.201Z,18.60
2022-08-17T08:39:34.197Z,17.30
2022-08-17T08:40:34.128Z,17.70
2022-08-17T08:41:34.434Z,17.60
2022-08-17T08:42:34.143Z,16.70
2022-08-17T08:43:34.251Z,16.40
2022-08-17T08:45:00.350Z,16.80
2022-08-17T08:45:34.585Z,16.90
2022-08-17T08:46:34.066Z,16.20
2022-08-17T08:47:46.249Z,16.10
2022-08-17T08:48:52.828Z,16.30
2022-08-17T08:50:02.177Z,17.20
2022-08-17T08:50:37.344Z,17.60
2022-08-17T08:51:34.002Z,18.10
2022-08-17T08:52:33.991Z,18.40
2022-08-17T08:53:34.052Z,19.20
2022-08-17T08:54:33.974Z,18.00
2022-08-17T08:55:33.985Z,18.00
2022-08-17T08:56:33.940Z,18.10
2022-08-17T08:57:34.683Z,17.70
2022-08-17T08:58:42.107Z,17.10
2022-08-17T08:59:33.973Z,17.90
2022-08-17T09:00:33.918Z,17.50
2022-08-17T09:01:33.954Z,18.20
2022-08-17T09:02:34.878Z,17.10
2022-08-17T09:03:51.495Z,17.50
2022-08-17T09:04:50.012Z,17.20
2022-08-17T09:05:33.895Z,16.80
2022-08-17T09:06:39.129Z,16.90
2022-08-17T09:07:33.830Z,15.90
2022-08-17T09:08:33.825Z,15.80
2022-08-17T09:09:33.824Z,16.50
2022-08-17T09:10:33.807Z,17.60
2022-08-17T09:11:33.829Z,16.70
2022-08-17T09:12:33.765Z,18.20
2022-08-17T09:13:33.787Z,18.50
2022-08-17T09:14:45.361Z,17.60
2022-08-17T09:15:34.451Z,18.90
2022-08-17T09:16:33.897Z,19.50
2022-08-17T09:17:34.273Z,18.20
2022-08-17T09:18:59.158Z,18.80
2022-08-17T09:19:33.784Z,18.90
2022-08-17T09:20:33.749Z,18.00
2022-08-17T09:21:34.098Z,18.80
2022-08-17T09:22:33.688Z,18.80
2022-08-17T09:23:33.791Z,19.40
2022-08-17T09:24:33.739Z,19.40
2022-08-17T09:25:33.658Z,19.10
2022-08-17T09:26:33.604Z,19.80
2022-08-17T09:27:33.606Z,20.50
2022-08-17T09:28:33.588Z,19.90
2022-08-17T09:29:33.660Z,20.40
2022-08-17T09:30:33.632Z,20.50
2022-08-17T09:31:33.610Z,20.50
2022-08-17T09:32:34.490Z,20.30
2022-08-17T09:33:33.533Z,20.70
2022-08-17T09:34:33.522Z,21.50
2022-08-17T09:35:36.995Z,21.90
2022-08-17T09:36:33.535Z,21.70
2022-08-17T09:37:33.563Z,20.90
2022-08-17T09:38:33.476Z,21.10
2022-08-17T09:39:33.550Z,20.60
2022-08-17T09:40:33.492Z,20.90
2022-08-17T09:41:33.563Z,20.40
2022-08-17T09:42:33.483Z,20.60
2022-08-17T09:43:33.422Z,21.30
2022-08-17T09:44:33.408Z,20.90
2022-08-17T09:45:33.395Z,20.30
2022-08-17T09:46:33.382Z,21.30
2022-08-17T09:47:33.434Z,20.90
2022-08-17T09:48:33.473Z,20.70
2022-08-17T09:49:33.374Z,20.20
2022-08-17T09:51:04.173Z,20.50
2022-08-17T09:51:33.331Z,20.20
2022-08-17T09:52:33.332Z,19.50
2022-08-17T09:53:33.342Z,19.60
2022-08-17T09:54:40.872Z,20.30
2022-08-17T09:55:33.325Z,19.80
2022-08-17T09:56:33.322Z,20.10
2022-08-17T09:57:33.270Z,19.50
2022-08-17T09:58:33.313Z,19.00
2022-08-17T09:59:38.510Z,18.60
2022-08-17T10:00:33.269Z,18.90
2022-08-17T10:01:33.312Z,18.90
2022-08-17T10:02:33.197Z,19.20
2022-08-17T10:03:33.199Z,18.90
2022-08-17T10:04:33.181Z,19.30
2022-08-17T10:05:33.219Z,18.90
2022-08-17T10:06:33.266Z,19.40
2022-08-17T10:07:33.149Z,19.20
2022-08-17T10:08:33.166Z,19.10
2022-08-17T10:09:33.131Z,19.80
2022-08-17T10:10:33.115Z,19.20
2022-08-17T10:11:34.031Z,19.20
2022-08-17T10:12:33.105Z,19.50
2022-08-17T10:13:33.211Z,20.20
2022-08-17T10:14:38.109Z,20.10
2022-08-17T10:15:33.107Z,21.20
2022-08-17T10:16:33.061Z,20.40
2022-08-17T10:17:33.594Z,21.40
2022-08-17T10:18:33.335Z,22.10
2022-08-17T10:19:33.157Z,21.10
2022-08-17T10:20:33.021Z,22.10
2022-08-17T10:21:33.014Z,21.60
2022-08-17T10:22:35.584Z,22.00
2022-08-17T10:23:33.007Z,21.80
2022-08-17T10:24:32.962Z,21.70
2022-08-17T10:25:53.473Z,22.00
2022-08-17T10:26:46.222Z,22.60
2022-08-17T10:27:33.290Z,23.90
2022-08-17T10:28:32.902Z,23.50
2022-08-17T10:29:46.212Z,24.00
2022-08-17T10:30:32.907Z,24.90
2022-08-17T10:31:35.483Z,24.90
2022-08-17T10:32:32.877Z,25.00
2022-08-17T10:33:33.604Z,26.00
2022-08-17T10:34:38.659Z,25.70
2022-08-17T10:35:33.514Z,25.10
2022-08-17T10:36:32.837Z,24.30
2022-08-17T10:37:33.267Z,25.30
2022-08-17T10:38:32.996Z,24.80
2022-08-17T10:39:33.018Z,24.20
2022-08-17T10:40:33.601Z,24.80
2022-08-17T10:41:36.863Z,25.20
2022-08-17T10:42:33.338Z,24.70
2022-08-17T10:43:32.745Z,22.50
2022-08-17T10:44:37.877Z,22.80
2022-08-17T10:45:32.752Z,22.40
2022-08-17T10:46:32.741Z,22.10
2022-08-17T10:47:52.760Z,21.10
2022-08-17T10:48:33.076Z,20.60
2022-08-17T10:49:32.755Z,20.50
2022-08-17T10:50:34.602Z,20.60
2022-08-17T10:51:32.698Z,20.40
2022-08-17T10:52:32.653Z,20.20
2022-08-17T10:53:34.061Z,20.30
2022-08-17T10:54:33.597Z,20.60
2022-08-17T10:55:32.674Z,20.30
2022-08-17T10:56:32.640Z,21.10
2022-08-17T10:57:32.675Z,20.20
2022-08-17T10:58:32.579Z,20.20
2022-08-17T10:59:32.771Z,20.60
2022-08-17T11:00:32.580Z,20.00
2022-08-17T11:01:32.782Z,20.00
2022-08-17T11:02:32.580Z,20.10
2022-08-17T11:03:32.550Z,19.00
2022-08-17T11:04:32.532Z,18.80
2022-08-17T11:05:32.575Z,18.80
2022-08-17T11:06:32.547Z,17.60
2022-08-17T11:07:32.498Z,17.00
2022-08-17T11:08:32.491Z,16.30
2022-08-17T11:09:33.701Z,15.70
2022-08-17T11:10:32.464Z,15.90
2022-08-17T11:11:32.741Z,15.60
2022-08-17T11:12:32.417Z,15.40
2022-08-17T11:13:32.408Z,14.00
2022-08-17T11:14:34.069Z,15.00
2022-08-17T11:15:32.413Z,14.00
2022-08-17T11:16:32.410Z,14.10
2022-08-17T11:17:32.415Z,13.60
2022-08-17T11:18:32.408Z,12.70
2022-08-17T11:19:32.338Z,12.70
2022-08-17T11:20:32.345Z,12.50
2022-08-17T11:21:32.382Z,13.20
2022-08-17T11:22:33.710Z,12.70
2022-08-17T11:23:32.334Z,12.90
2022-08-17T11:24:32.320Z,12.70
2022-08-17T11:25:32.304Z,12.40
2022-08-17T11:26:33.092Z,12.90
2022-08-17T11:27:32.247Z,12.50
2022-08-17T11:28:32.240Z,12.30
2022-08-17T11:29:32.261Z,12.40
2022-08-17T11:30:32.209Z,12.20
2022-08-17T11:31:38.695Z,13.20
2022-08-17T11:32:32.219Z,11.50
2022-08-17T11:33:32.184Z,12.00
2022-08-17T11:34:32.182Z,12.80
2022-08-17T11:35:32.216Z,12.30
2022-08-17T11:36:32.171Z,11.80
2022-08-17T11:37:32.149Z,11.90
2022-08-17T11:38:32.160Z,11.70
2022-08-17T11:39:32.218Z,12.30
2022-08-17T11:40:32.148Z,11.70
2022-08-17T11:41:32.146Z,12.20
2022-08-17T11:42:32.081Z,13.10
2022-08-17T11:43:32.152Z,12.60
2022-08-17T11:44:32.076Z,11.90
2022-08-17T11:45:33.070Z,11.90
2022-08-17T11:46:32.045Z,11.30
2022-08-17T11:47:32.076Z,12.40
2022-08-17T11:48:32.283Z,10.90
2022-08-17T11:49:31.994Z,10.30
2022-08-17T11:50:31.994Z,9.90
2022-08-17T11:51:32.078Z,11.10
2022-08-17T11:52:31.977Z,9.90
2022-08-17T11:53:32.007Z,10.20
2022-08-17T11:54:33.756Z,10.50
2022-08-17T11:55:35.776Z,11.00
2022-08-17T11:56:32.009Z,10.80
2022-08-17T11:57:31.936Z,11.00
2022-08-17T11:58:31.929Z,10.60
2022-08-17T11:59:31.914Z,11.60
2022-08-17T12:00:31.881Z,9.90
2022-08-17T12:01:31.870Z,10.50
2022-08-17T12:02:32.751Z,10.40
2022-08-17T12:03:32.083Z,10.50
2022-08-17T12:04:31.936Z,10.30
2022-08-17T12:05:31.871Z,10.50
2022-08-17T12:06:31.812Z,10.70
2022-08-17T12:07:31.821Z,10.70
2022-08-17T12:08:31.822Z,10.30
2022-08-17T12:09:31.811Z,10.00
2022-08-17T12:10:31.859Z,10.10
2022-08-17T12:12:11.140Z,9.90
2022-08-17T12:12:31.758Z,9.50
2022-08-17T12:13:39.262Z,10.30
2022-08-17T12:15:05.752Z,10.00
2022-08-17T12:15:31.786Z,10.20
2022-08-17T12:16:31.696Z,10.20
2022-08-17T12:17:41.003Z,10.50
2022-08-17T12:18:31.820Z,9.40
2022-08-17T12:19:31.677Z,11.10
2022-08-17T12:20:31.719Z,10.00
2022-08-17T12:21:31.676Z,10.30
2022-08-17T12:22:31.653Z,10.60
2022-08-17T12:23:31.662Z,10.40
2022-08-17T12:24:31.742Z,11.00
2022-08-17T12:25:31.625Z,10.50
2022-08-17T12:26:31.944Z,10.20
2022-08-17T12:27:47.618Z,10.20
2022-08-17T12:28:37.624Z,10.70
2022-08-17T12:29:35.950Z,11.10
2022-08-17T12:30:33.187Z,11.10
2022-08-17T12:31:31.570Z,10.50
2022-08-17T12:32:31.559Z,10.70
2022-08-17T12:33:31.513Z,10.40
2022-08-17T12:34:31.536Z,10.70
2022-08-17T12:35:31.683Z,10.70
2022-08-17T12:36:31.704Z,9.10
2022-08-17T12:37:31.474Z,10.10
2022-08-17T12:38:33.209Z,9.60
2022-08-17T12:39:33.958Z,10.00
2022-08-17T12:40:31.505Z,10.30
2022-08-17T12:41:31.603Z,9.90
2022-08-17T12:42:31.424Z,10.00
2022-08-17T12:43:31.436Z,9.80
2022-08-17T12:44:31.484Z,10.20
2022-08-17T12:45:31.403Z,9.80
2022-08-17T12:46:31.474Z,11.20
2022-08-17T12:47:31.755Z,10.20
2022-08-17T12:48:31.384Z,10.30
2022-08-17T12:49:31.391Z,10.30